createdAt,value
2023-05-20T00:01:49.369Z,3.22
2023-05-20T00:04:16.224Z,2.42
2023-05-20T00:06:43.179Z,2.60
2023-05-20T00:09:10.054Z,2.63
2023-05-20T00:11:36.967Z,3.10
2023-05-20T00:14:03.718Z,2.55
2023-05-20T00:16:30.556Z,2.85
2023-05-20T00:18:57.538Z,2.30
2023-05-20T00:21:24.220Z,2.63
2023-05-20T00:23:51.209Z,2.28
2023-05-20T00:26:17.914Z,2.80
2023-05-20T00:28:44.606Z,2.60
2023-05-20T00:31:11.326Z,2.60
2023-05-20T00:33:38.034Z,2.90
2023-05-20T00:36:05.193Z,2.70
2023-05-20T00:38:31.882Z,3.47
2023-05-20T00:40:58.591Z,2.75
2023-05-20T00:43:26.570Z,2.80
2023-05-20T00:45:54.585Z,2.47
2023-05-20T00:48:22.242Z,2.97
2023-05-20T00:50:50.535Z,3.08
2023-05-20T00:53:21.521Z,2.72
2023-05-20T00:55:48.361Z,2.72
2023-05-20T00:58:15.053Z,2.60
2023-05-20T01:00:41.854Z,2.72
2023-05-20T01:03:08.832Z,3.20
2023-05-20T01:05:36.151Z,3.10
2023-05-20T01:08:03.456Z,3.15
2023-05-20T01:10:30.867Z,3.20
2023-05-20T01:13:01.783Z,3.90
2023-05-20T01:15:30.286Z,2.97
2023-05-20T01:18:01.835Z,3.33
2023-05-20T01:20:32.702Z,3.58
2023-05-20T01:22:59.951Z,3.13
2023-05-20T01:25:26.680Z,2.92
2023-05-20T01:27:55.876Z,3.65
2023-05-20T01:30:23.391Z,3.13
2023-05-20T01:32:55.104Z,3.10
2023-05-20T01:35:23.662Z,3.70
2023-05-20T01:37:52.393Z,3.17
2023-05-20T01:40:19.640Z,3.25
2023-05-20T01:42:52.928Z,3.13
2023-05-20T01:47:46.890Z,3.97
2023-05-20T01:50:13.616Z,3.45
2023-05-20T01:52:40.312Z,3.70
2023-05-20T01:55:07.195Z,3.58
2023-05-20T01:57:33.946Z,2.97
2023-05-20T02:00:00.822Z,3.47
2023-05-20T02:02:27.607Z,3.55
2023-05-20T02:04:54.591Z,3.45
2023-05-20T02:07:21.359Z,3.58
2023-05-20T02:09:48.108Z,3.60
2023-05-20T02:12:17.589Z,3.55
2023-05-20T02:14:46.140Z,4.28
2023-05-20T02:17:16.343Z,3.53
2023-05-20T02:19:47.504Z,3.88
2023-05-20T02:22:14.534Z,3.55
2023-05-20T02:24:43.261Z,3.55
2023-05-20T02:27:10.227Z,3.67
2023-05-20T02:29:37.068Z,3.13
2023-05-20T02:32:03.904Z,3.30
2023-05-20T02:34:31.683Z,3.20
2023-05-20T02:36:58.498Z,3.40
2023-05-20T02:39:25.200Z,4.45
2023-05-20T02:41:51.866Z,3.60
2023-05-20T02:44:18.529Z,4.00
2023-05-20T02:46:45.164Z,4.10
2023-05-20T02:49:11.947Z,3.55
2023-05-20T02:51:38.634Z,4.50
2023-05-20T02:54:05.600Z,3.67
2023-05-20T02:56:32.461Z,3.95
2023-05-20T02:58:59.161Z,3.70
2023-05-20T03:01:26.072Z,4.50
2023-05-20T03:03:52.903Z,4.00
2023-05-20T03:06:19.683Z,3.92
2023-05-20T03:08:46.302Z,4.25
2023-05-20T03:11:12.970Z,3.75
2023-05-20T03:13:39.601Z,4.07
2023-05-20T03:16:06.395Z,3.90
2023-05-20T03:18:33.418Z,4.45
2023-05-20T03:21:00.135Z,4.93
2023-05-20T03:23:27.344Z,3.95
2023-05-20T03:25:54.076Z,4.00
2023-05-20T03:28:20.933Z,3.90
2023-05-20T03:30:47.560Z,4.35
2023-05-20T03:33:15.946Z,4.45
2023-05-20T03:35:42.636Z,4.57
2023-05-20T03:38:09.326Z,4.60
2023-05-20T03:40:35.990Z,4.25
2023-05-20T03:43:02.668Z,4.28
2023-05-20T03:45:29.395Z,4.00
2023-05-20T03:47:56.233Z,4.28
2023-05-20T03:50:22.945Z,4.47
2023-05-20T03:52:49.621Z,4.35
2023-05-20T03:55:16.399Z,4.30
2023-05-20T03:57:43.026Z,4.15
2023-05-20T04:00:12.209Z,4.13
2023-05-20T04:02:39.109Z,4.10
2023-05-20T04:05:08.741Z,5.07
2023-05-20T04:07:35.982Z,4.28
2023-05-20T04:10:03.599Z,4.03
2023-05-20T04:12:32.185Z,4.25
2023-05-20T04:15:01.434Z,4.80
2023-05-20T04:17:30.183Z,5.13
2023-05-20T04:19:59.852Z,4.68
2023-05-20T04:22:27.171Z,5.35
2023-05-20T04:24:53.930Z,5.22
2023-05-20T04:27:21.564Z,4.93
2023-05-20T04:29:48.633Z,4.43
2023-05-20T04:32:19.042Z,4.53
2023-05-20T04:34:46.971Z,4.30
2023-05-20T04:37:14.199Z,5.10
2023-05-20T04:39:40.859Z,4.53
2023-05-20T04:42:07.658Z,3.65
2023-05-20T04:44:34.627Z,4.20
2023-05-20T04:47:01.433Z,5.55
2023-05-20T04:49:29.969Z,4.50
2023-05-20T04:51:56.673Z,4.25
2023-05-20T04:54:23.524Z,4.88
2023-05-20T04:56:51.113Z,4.30
2023-05-20T04:59:17.957Z,4.20
2023-05-20T05:01:44.730Z,4.18
2023-05-20T05:04:11.669Z,4.05
2023-05-20T05:06:38.459Z,4.43
2023-05-20T05:09:05.380Z,4.20
2023-05-20T05:11:32.095Z,3.97
2023-05-20T05:13:58.724Z,3.80
2023-05-20T05:16:25.682Z,3.55
2023-05-20T05:18:52.495Z,3.80
2023-05-20T05:21:19.147Z,3.67
2023-05-20T05:23:46.158Z,3.70
2023-05-20T05:26:12.788Z,3.47
2023-05-20T05:28:41.986Z,3.60
2023-05-20T05:31:08.668Z,3.30
2023-05-20T05:33:35.397Z,4.00
2023-05-20T05:36:02.725Z,3.45
2023-05-20T05:38:29.377Z,3.50
2023-05-20T05:40:56.302Z,3.42
2023-05-20T05:43:23.057Z,3.50
2023-05-20T05:45:49.753Z,3.63
2023-05-20T05:48:16.522Z,3.33
2023-05-20T05:50:46.920Z,3.53
2023-05-20T05:53:13.659Z,3.40
2023-05-20T05:55:40.411Z,3.30
2023-05-20T05:58:07.161Z,3.70
2023-05-20T06:00:33.999Z,3.40
2023-05-20T06:03:01.579Z,3.80
2023-05-20T06:05:30.935Z,4.10
2023-05-20T06:07:57.644Z,4.05
2023-05-20T06:10:24.448Z,3.53
2023-05-20T06:12:51.042Z,3.95
2023-05-20T06:15:17.866Z,3.58
2023-05-20T06:17:44.501Z,3.40
2023-05-20T06:20:11.670Z,3.20
2023-05-20T06:22:38.354Z,3.28
2023-05-20T06:25:06.383Z,3.42
2023-05-20T06:27:33.428Z,3.55
2023-05-20T06:30:00.213Z,3.45
2023-05-20T06:32:27.584Z,3.10
2023-05-20T06:34:54.218Z,3.88
2023-05-20T06:37:20.994Z,3.53
2023-05-20T06:39:51.582Z,3.13
2023-05-20T06:42:18.165Z,2.90
2023-05-20T06:44:44.774Z,2.95
2023-05-20T06:47:11.768Z,4.07
2023-05-20T06:49:38.457Z,3.33
2023-05-20T06:52:08.338Z,3.00
2023-05-20T06:54:40.049Z,3.50
2023-05-20T06:57:08.995Z,3.25
2023-05-20T06:59:36.998Z,3.30
2023-05-20T07:02:04.073Z,3.22
2023-05-20T07:04:30.775Z,3.38
2023-05-20T07:06:57.551Z,2.92
2023-05-20T07:09:24.251Z,2.90
2023-05-20T07:11:51.097Z,3.15
2023-05-20T07:14:17.823Z,3.55
2023-05-20T07:16:44.547Z,3.22
2023-05-20T07:19:11.428Z,3.55
2023-05-20T07:21:38.101Z,3.22
2023-05-20T07:24:04.888Z,3.10
2023-05-20T07:26:33.767Z,3.03
2023-05-20T07:29:00.443Z,3.45
2023-05-20T07:31:27.251Z,2.85
2023-05-20T07:33:53.953Z,2.88
2023-05-20T07:36:20.925Z,3.55
2023-05-20T07:39:00.934Z,3.22
2023-05-20T07:41:30.121Z,2.67
2023-05-20T07:43:56.813Z,3.17
2023-05-20T07:46:23.518Z,3.45
2023-05-20T07:48:50.200Z,2.75
2023-05-20T07:51:16.937Z,2.70
2023-05-20T07:53:43.565Z,2.63
2023-05-20T07:56:10.268Z,3.33
2023-05-20T07:58:37.035Z,2.75
2023-05-20T08:01:04.015Z,3.15
2023-05-20T08:03:30.741Z,3.47
2023-05-20T08:05:57.581Z,2.95
2023-05-20T08:08:24.337Z,2.95
2023-05-20T08:10:52.708Z,2.50
2023-05-20T08:13:19.368Z,2.70
2023-05-20T08:15:46.192Z,2.97
2023-05-20T08:18:13.049Z,2.65
2023-05-20T08:20:39.704Z,3.45
2023-05-20T08:23:06.320Z,2.80
2023-05-20T08:25:33.314Z,3.47
2023-05-20T08:28:06.921Z,2.70
2023-05-20T08:30:34.326Z,2.83
2023-05-20T08:33:02.039Z,2.85
2023-05-20T08:35:28.784Z,2.78
2023-05-20T08:37:55.390Z,2.67
2023-05-20T08:40:22.726Z,2.97
2023-05-20T08:42:52.697Z,2.90
2023-05-20T08:45:21.755Z,2.63
2023-05-20T08:47:48.565Z,2.90
2023-05-20T08:50:16.992Z,2.63
2023-05-20T08:52:45.659Z,2.25
2023-05-20T08:55:35.757Z,2.10
2023-05-20T08:58:03.595Z,2.83
2023-05-20T09:00:30.635Z,2.40
2023-05-20T09:03:00.136Z,2.45
2023-05-20T09:05:27.799Z,2.33
2023-05-20T09:08:05.921Z,2.40
2023-05-20T09:10:33.445Z,2.67
2023-05-20T09:13:02.602Z,2.42
2023-05-20T09:15:29.229Z,2.45
2023-05-20T09:17:56.067Z,2.95
2023-05-20T09:20:23.421Z,2.90
2023-05-20T09:22:55.725Z,2.30
2023-05-20T09:25:23.952Z,2.20
2023-05-20T09:27:51.135Z,2.83
2023-05-20T09:30:21.755Z,2.40
2023-05-20T09:32:59.215Z,2.42
2023-05-20T09:35:27.864Z,2.40
2023-05-20T09:37:56.077Z,2.78
2023-05-20T09:40:29.256Z,2.47
2023-05-20T09:43:07.377Z,3.38
2023-05-20T09:45:34.676Z,2.40
2023-05-20T09:48:02.560Z,2.75
2023-05-20T09:50:30.548Z,2.83
2023-05-20T09:52:57.757Z,2.58
2023-05-20T09:55:25.254Z,2.40
2023-05-20T09:57:54.053Z,3.75
2023-05-20T10:00:21.780Z,2.80
2023-05-20T10:02:51.467Z,2.90
2023-05-20T10:05:22.009Z,2.88
2023-05-20T10:08:11.860Z,2.80
2023-05-20T10:10:52.628Z,2.45
2023-05-20T10:13:39.040Z,2.45
2023-05-20T10:16:32.640Z,2.00
2023-05-20T10:19:08.460Z,2.78
2023-05-20T10:21:35.365Z,2.50
2023-05-20T10:24:11.842Z,2.25
2023-05-20T10:26:39.761Z,2.63
2023-05-20T10:29:20.091Z,2.47
2023-05-20T10:31:52.017Z,2.00
2023-05-20T10:34:23.310Z,2.25
2023-05-20T10:36:56.141Z,2.53
2023-05-20T10:39:30.370Z,2.17
2023-05-20T10:42:10.724Z,2.20
2023-05-20T10:44:42.510Z,2.42
2023-05-20T10:47:24.859Z,2.03
2023-05-20T10:49:52.869Z,2.25
2023-05-20T10:52:20.431Z,2.33
2023-05-20T10:54:51.551Z,2.42
2023-05-20T10:57:18.849Z,1.92
2023-05-20T10:59:47.653Z,2.00
2023-05-20T11:02:17.152Z,2.40
2023-05-20T11:04:44.890Z,2.33
2023-05-20T11:07:11.740Z,2.72
2023-05-20T11:09:39.049Z,2.70
2023-05-20T11:12:06.474Z,2.15
2023-05-20T11:14:33.238Z,2.25
2023-05-20T11:17:00.624Z,2.65
2023-05-20T11:19:28.156Z,2.53
2023-05-20T11:21:55.102Z,2.80
2023-05-20T11:24:26.992Z,3.03
2023-05-20T11:26:55.020Z,2.42
2023-05-20T11:29:22.517Z,2.25
2023-05-20T11:31:52.726Z,2.50
2023-05-20T11:34:25.762Z,2.25
2023-05-20T11:36:57.308Z,2.50
2023-05-20T11:39:27.601Z,2.47
2023-05-20T11:41:54.383Z,2.40
2023-05-20T11:44:21.314Z,2.20
2023-05-20T11:46:48.629Z,2.47
2023-05-20T11:49:16.113Z,2.60
2023-05-20T11:51:45.824Z,2.00
2023-05-20T11:54:12.539Z,2.20
2023-05-20T11:56:41.549Z,2.40
2023-05-20T11:59:10.319Z,2.20
2023-05-20T12:01:40.919Z,2.40
2023-05-20T12:04:08.401Z,2.53
2023-05-20T12:06:37.165Z,2.72
2023-05-20T12:09:08.649Z,2.28
2023-05-20T12:11:37.375Z,2.80
2023-05-20T12:14:04.598Z,2.42
2023-05-20T12:16:33.013Z,2.00
2023-05-20T12:19:00.284Z,2.35
2023-05-20T12:21:28.469Z,2.20
2023-05-20T12:23:58.507Z,2.63
2023-05-20T12:26:26.952Z,2.80
2023-05-20T12:28:54.234Z,2.38
2023-05-20T12:31:21.034Z,2.53
2023-05-20T12:33:48.052Z,2.35
2023-05-20T12:36:16.389Z,2.35
2023-05-20T12:38:43.344Z,2.63
2023-05-20T12:41:10.038Z,2.15
2023-05-20T12:43:37.673Z,2.10
2023-05-20T12:46:05.075Z,2.13
2023-05-20T12:48:32.062Z,2.78
2023-05-20T12:50:58.744Z,2.55
2023-05-20T12:53:25.525Z,2.10
2023-05-20T12:55:52.481Z,2.50
2023-05-20T12:58:19.235Z,2.20
2023-05-20T13:00:45.918Z,2.10
2023-05-20T13:03:12.683Z,1.85
2023-05-20T13:05:39.427Z,2.20
2023-05-20T13:08:06.342Z,2.00
2023-05-20T13:10:33.417Z,2.40
2023-05-20T13:13:00.412Z,2.28
2023-05-20T13:15:27.115Z,2.10
2023-05-20T13:17:54.416Z,2.05
2023-05-20T13:20:21.616Z,2.20
2023-05-20T13:22:50.326Z,1.98
2023-05-20T13:25:17.150Z,2.00
2023-05-20T13:27:43.939Z,2.17
2023-05-20T13:30:11.136Z,2.70
2023-05-20T13:32:38.036Z,2.30
2023-05-20T13:35:05.102Z,1.85
2023-05-20T13:37:31.903Z,1.90
2023-05-20T13:39:58.713Z,2.10
2023-05-20T13:42:25.455Z,1.90
2023-05-20T13:44:52.102Z,2.15
2023-05-20T13:47:18.877Z,1.80
2023-05-20T13:49:45.531Z,2.30
2023-05-20T13:52:12.275Z,2.05
2023-05-20T13:54:38.950Z,2.00
2023-05-20T13:57:07.977Z,3.72
2023-05-20T13:59:35.279Z,2.20
2023-05-20T14:02:02.764Z,2.28
2023-05-20T14:04:31.228Z,1.83
2023-05-20T14:06:59.286Z,1.60
2023-05-20T14:09:26.038Z,2.70
2023-05-20T14:11:52.669Z,2.17
2023-05-20T14:14:19.302Z,1.83
2023-05-20T14:16:46.051Z,2.15
2023-05-20T14:19:12.619Z,2.10
2023-05-20T14:21:39.437Z,2.10
2023-05-20T14:24:06.604Z,2.63
2023-05-20T14:26:34.242Z,2.13
2023-05-20T14:29:01.197Z,2.00
2023-05-20T14:31:27.932Z,2.20
2023-05-20T14:33:54.633Z,2.10
2023-05-20T14:36:21.389Z,2.60
2023-05-20T14:38:49.535Z,2.25
2023-05-20T14:41:16.562Z,2.10
2023-05-20T14:43:43.234Z,1.75
2023-05-20T14:46:10.622Z,3.67
2023-05-20T14:48:37.506Z,2.42
2023-05-20T14:51:04.306Z,2.13
2023-05-20T14:53:31.138Z,2.00
2023-05-20T14:55:57.913Z,1.92
2023-05-20T14:58:24.621Z,1.60
2023-05-20T15:00:53.506Z,2.08
2023-05-20T15:03:20.570Z,2.35
2023-05-20T15:05:47.280Z,2.00
2023-05-20T15:08:13.996Z,2.03
2023-05-20T15:10:40.707Z,2.65
2023-05-20T15:13:07.587Z,2.38
2023-05-20T15:15:36.736Z,2.03
2023-05-20T15:18:03.497Z,2.53
2023-05-20T15:20:30.217Z,2.13
2023-05-20T15:22:58.098Z,2.20
2023-05-20T15:25:25.842Z,2.15
2023-05-20T15:27:52.472Z,2.17
2023-05-20T15:30:19.109Z,1.77
2023-05-20T15:32:45.873Z,1.83
2023-05-20T15:35:12.552Z,1.80
2023-05-20T15:37:39.443Z,2.03
2023-05-20T15:40:06.791Z,1.85
2023-05-20T15:42:33.490Z,1.63
2023-05-20T15:45:00.198Z,2.05
2023-05-20T15:47:26.864Z,2.30
2023-05-20T15:49:54.608Z,1.95
2023-05-20T15:52:21.393Z,1.60
2023-05-20T15:54:48.092Z,2.30
2023-05-20T15:57:14.813Z,1.67
2023-05-20T15:59:41.795Z,1.88
2023-05-20T16:02:08.542Z,2.25
2023-05-20T16:04:35.240Z,1.90
2023-05-20T16:07:01.957Z,1.92
2023-05-20T16:09:28.736Z,2.20
2023-05-20T16:11:56.421Z,2.17
2023-05-20T16:14:23.117Z,1.80
2023-05-20T16:16:49.926Z,1.90
2023-05-20T16:19:16.685Z,1.88
2023-05-20T16:21:43.497Z,2.10
2023-05-20T16:24:10.109Z,1.90
2023-05-20T16:26:36.873Z,1.77
2023-05-20T16:29:03.839Z,2.20
2023-05-20T16:31:30.622Z,2.10
2023-05-20T16:33:57.603Z,1.75
2023-05-20T16:36:24.316Z,1.65
2023-05-20T16:38:51.071Z,2.00
2023-05-20T16:41:17.832Z,2.20
2023-05-20T16:43:44.741Z,2.15
2023-05-20T16:46:17.966Z,1.85
2023-05-20T16:51:11.267Z,1.80
2023-05-20T16:53:38.049Z,2.42
2023-05-20T16:56:06.711Z,1.52
2023-05-20T16:58:33.408Z,2.00
2023-05-20T17:01:00.135Z,1.60
2023-05-20T17:03:26.832Z,2.00
2023-05-20T17:05:53.549Z,2.05
2023-05-20T17:08:20.182Z,2.33
2023-05-20T17:10:48.667Z,2.08
2023-05-20T17:13:16.005Z,2.20
2023-05-20T17:15:42.823Z,1.88
2023-05-20T17:18:09.680Z,1.80
2023-05-20T17:20:36.540Z,1.80
2023-05-20T17:23:03.775Z,1.85
2023-05-20T17:25:30.595Z,1.70
2023-05-20T17:27:57.299Z,2.47
2023-05-20T17:30:24.236Z,1.88
2023-05-20T17:32:53.749Z,1.67
2023-05-20T17:35:20.969Z,1.80
2023-05-20T17:37:47.861Z,1.77
2023-05-20T17:40:14.504Z,1.40
2023-05-20T17:42:41.136Z,1.35
2023-05-20T17:45:08.295Z,1.63
2023-05-20T17:47:35.009Z,1.83
2023-05-20T17:50:02.960Z,1.83
2023-05-20T17:52:29.780Z,1.70
2023-05-20T17:54:56.635Z,1.42
2023-05-20T17:57:23.387Z,1.50
2023-05-20T17:59:50.885Z,1.83
2023-05-20T18:02:17.731Z,1.20
2023-05-20T18:14:35.618Z,1.45
2023-05-20T18:17:40.246Z,1.67
2023-05-20T18:20:42.697Z,1.45
2023-05-20T18:23:09.367Z,1.70
2023-05-20T18:25:35.979Z,1.70
2023-05-20T18:28:03.173Z,1.67
2023-05-20T18:30:32.644Z,1.70
2023-05-20T18:32:59.331Z,1.45
2023-05-20T18:35:27.270Z,1.45
2023-05-20T18:37:53.959Z,1.40
2023-05-20T18:40:20.938Z,1.48
2023-05-20T18:42:47.774Z,1.38
2023-05-20T18:45:14.521Z,1.50
2023-05-20T18:47:41.848Z,1.40
2023-05-20T18:50:08.895Z,1.50
2023-05-20T18:52:35.651Z,1.17
2023-05-20T18:55:02.279Z,1.63
2023-05-20T18:57:28.989Z,1.50
2023-05-20T18:59:55.754Z,1.83
2023-05-20T19:02:22.359Z,1.40
2023-05-20T19:04:49.088Z,1.20
2023-05-20T19:07:15.988Z,1.63
2023-05-20T19:09:42.612Z,1.52
2023-05-20T19:12:09.271Z,1.67
2023-05-20T19:14:36.288Z,1.40
2023-05-20T19:17:03.214Z,1.98
2023-05-20T19:19:29.969Z,1.60
2023-05-20T19:21:56.684Z,2.05
2023-05-20T19:24:23.742Z,1.30
2023-05-20T19:26:51.287Z,1.60
2023-05-20T19:29:17.943Z,1.75
2023-05-20T19:31:44.801Z,2.00
2023-05-20T19:34:11.551Z,1.40
2023-05-20T19:36:39.835Z,2.42
2023-05-20T19:39:07.870Z,1.60
2023-05-20T19:41:34.688Z,1.50
2023-05-20T19:44:01.887Z,1.42
2023-05-20T19:46:28.562Z,1.30
2023-05-20T19:48:55.258Z,1.80
2023-05-20T19:51:22.253Z,1.65
2023-05-20T19:53:49.306Z,1.63
2023-05-20T19:56:24.074Z,1.52
2023-05-20T19:58:51.618Z,1.52
2023-05-20T20:01:18.830Z,1.60
2023-05-20T20:03:46.115Z,2.85
2023-05-20T20:06:13.062Z,2.47
2023-05-20T20:08:39.712Z,2.55
2023-05-20T20:11:07.236Z,2.13
2023-05-20T20:13:33.992Z,1.45
2023-05-20T20:16:00.810Z,1.73
2023-05-20T20:18:27.524Z,2.28
2023-05-20T20:20:54.360Z,2.53
2023-05-20T20:23:21.371Z,2.25
2023-05-20T20:25:48.344Z,1.70
2023-05-20T20:28:15.012Z,1.88
2023-05-20T20:30:41.782Z,1.83
2023-05-20T20:33:09.667Z,1.85
2023-05-20T20:35:37.049Z,1.63
2023-05-20T20:38:10.168Z,1.90
2023-05-20T20:40:42.515Z,1.90
2023-05-20T20:43:11.164Z,2.05
2023-05-20T20:45:37.987Z,1.67
2023-05-20T20:48:08.093Z,1.67
2023-05-20T20:50:35.848Z,1.77
2023-05-20T20:53:02.753Z,1.98
2023-05-20T20:55:32.263Z,1.80
2023-05-20T20:58:02.686Z,1.90
2023-05-20T21:00:29.652Z,1.77
2023-05-20T21:02:56.455Z,1.90
2023-05-20T21:05:26.712Z,1.98
2023-05-20T21:07:58.445Z,1.70
2023-05-20T21:10:30.542Z,1.88
2023-05-20T21:12:58.192Z,1.75
2023-05-20T21:15:26.095Z,1.58
2023-05-20T21:17:53.321Z,2.08
2023-05-20T21:20:21.225Z,2.22
2023-05-20T21:22:48.427Z,1.65
2023-05-20T21:25:15.271Z,1.92
2023-05-20T21:27:42.075Z,2.25
2023-05-20T21:30:10.831Z,2.00
2023-05-20T21:32:38.231Z,1.98
2023-05-20T21:35:05.451Z,1.73
2023-05-20T21:37:32.267Z,1.98
2023-05-20T21:39:58.943Z,1.80
2023-05-20T21:42:25.769Z,2.20
2023-05-20T21:44:52.449Z,2.30
2023-05-20T21:47:20.691Z,2.15
2023-05-20T21:49:48.304Z,2.00
2023-05-20T21:52:15.397Z,2.03
2023-05-20T21:54:42.122Z,1.95
2023-05-20T21:57:08.759Z,1.98
2023-05-20T21:59:35.628Z,2.03
2023-05-20T22:02:02.388Z,2.67
2023-05-20T22:04:29.040Z,2.45
2023-05-20T22:06:56.624Z,2.42
2023-05-20T22:09:23.333Z,2.22
2023-05-20T22:11:50.681Z,2.45
2023-05-20T22:14:17.553Z,2.08
2023-05-20T22:16:48.588Z,2.25
2023-05-20T22:19:16.358Z,1.98
2023-05-20T22:21:50.378Z,2.10
2023-05-20T22:24:18.129Z,1.88
2023-05-20T22:26:45.063Z,2.05
2023-05-20T22:29:11.710Z,2.35
2023-05-20T22:31:38.445Z,2.08
2023-05-20T22:34:05.535Z,2.22
2023-05-20T22:36:36.529Z,2.13
2023-05-20T22:39:04.637Z,2.60
2023-05-20T22:41:31.434Z,2.28
2023-05-20T22:43:58.652Z,2.30
2023-05-20T22:46:28.767Z,2.25
2023-05-20T22:48:55.969Z,2.20
2023-05-20T22:51:22.865Z,2.50
2023-05-20T22:53:49.743Z,1.98
2023-05-20T22:56:17.300Z,2.40
2023-05-20T22:58:45.778Z,2.28
2023-05-20T23:01:12.968Z,2.10
2023-05-20T23:03:40.068Z,2.75
2023-05-20T23:06:06.760Z,2.28
2023-05-20T23:08:33.498Z,2.53
2023-05-20T23:11:00.188Z,2.42
2023-05-20T23:13:26.878Z,2.47
2023-05-20T23:15:54.290Z,2.05
2023-05-20T23:18:21.165Z,2.42
2023-05-20T23:20:47.792Z,2.33
2023-05-20T23:23:14.438Z,2.30
2023-05-20T23:25:43.564Z,2.15
2023-05-20T23:28:14.493Z,3.10
2023-05-20T23:30:41.148Z,2.45
2023-05-20T23:33:07.991Z,2.83
2023-05-20T23:35:34.907Z,2.35
2023-05-20T23:38:01.648Z,2.58
2023-05-20T23:40:28.294Z,2.30
2023-05-20T23:42:54.981Z,2.63
2023-05-20T23:45:21.626Z,2.58
2023-05-20T23:47:48.311Z,2.67
2023-05-20T23:50:15.002Z,3.13
2023-05-20T23:52:41.722Z,2.60
2023-05-20T23:55:14.328Z,2.55
2023-05-20T23:57:41.387Z,2.70
